createdAt,value
2023-02-19T00:01:16.690Z,83.31
2023-02-19T00:03:47.554Z,83.43
2023-02-19T00:06:13.858Z,83.31
2023-02-19T00:08:40.166Z,83.32
2023-02-19T00:11:12.509Z,82.87
2023-02-19T00:13:40.978Z,82.64
2023-02-19T00:16:09.343Z,82.21
2023-02-19T00:18:36.563Z,82.00
2023-02-19T00:21:03.817Z,82.27
2023-02-19T00:23:31.048Z,82.06
2023-02-19T00:26:01.096Z,82.23
2023-02-19T00:28:35.665Z,81.68
2023-02-19T00:31:19.426Z,81.77
2023-02-19T00:33:48.991Z,81.66
2023-02-19T00:36:15.891Z,81.83
2023-02-19T00:38:43.667Z,81.33
2023-02-19T00:41:20.479Z,81.37
2023-02-19T00:43:46.685Z,81.33
2023-02-19T00:46:13.042Z,81.56
2023-02-19T00:48:39.361Z,81.77
2023-02-19T00:51:05.802Z,82.01
2023-02-19T00:53:32.352Z,81.78
2023-02-19T00:55:58.679Z,81.83
2023-02-19T00:58:25.024Z,82.13
2023-02-19T01:00:51.433Z,82.12
2023-02-19T01:03:17.675Z,81.46
2023-02-19T01:05:43.995Z,82.64
2023-02-19T01:08:10.350Z,82.24
2023-02-19T01:10:36.602Z,82.34
2023-02-19T01:13:02.920Z,81.72
2023-02-19T01:15:29.220Z,82.16
2023-02-19T01:17:55.472Z,82.35
2023-02-19T01:20:21.778Z,82.07
2023-02-19T01:22:48.078Z,82.56
2023-02-19T01:25:14.401Z,82.22
2023-02-19T01:27:40.705Z,82.44
2023-02-19T01:30:07.522Z,82.48
2023-02-19T01:32:33.811Z,82.35
2023-02-19T01:35:00.101Z,82.15
2023-02-19T01:37:26.706Z,82.14
2023-02-19T01:39:53.023Z,81.65
2023-02-19T01:42:19.320Z,81.60
2023-02-19T01:44:45.626Z,81.57
2023-02-19T01:47:12.720Z,81.66
2023-02-19T01:49:52.300Z,81.67
2023-02-19T01:52:28.262Z,81.71
2023-02-19T01:54:54.876Z,81.75
2023-02-19T01:57:24.945Z,81.80
2023-02-19T01:59:55.171Z,81.40
2023-02-19T02:02:23.614Z,81.49
2023-02-19T02:04:49.891Z,81.73
2023-02-19T02:07:35.350Z,81.98
2023-02-19T02:10:20.716Z,81.84
2023-02-19T02:12:52.042Z,81.62
2023-02-19T02:15:19.030Z,81.99
2023-02-19T02:18:00.182Z,81.92
2023-02-19T02:20:58.400Z,82.12
2023-02-19T02:23:56.323Z,82.26
2023-02-19T02:26:53.204Z,82.55
2023-02-19T02:29:47.280Z,82.80
2023-02-19T02:32:21.311Z,82.42
2023-02-19T02:34:53.777Z,82.69
2023-02-19T02:37:20.227Z,83.10
2023-02-19T02:39:47.415Z,83.21
2023-02-19T02:42:28.611Z,83.44
2023-02-19T02:45:14.262Z,83.05
2023-02-19T02:47:47.785Z,83.14
2023-02-19T02:50:25.308Z,82.81
2023-02-19T02:53:14.815Z,83.23
2023-02-19T02:55:47.067Z,84.45
2023-02-19T02:58:16.732Z,85.82
2023-02-19T03:01:06.396Z,86.97
2023-02-19T03:03:35.624Z,88.04
2023-02-19T03:06:06.636Z,88.83
2023-02-19T03:08:48.559Z,89.70
2023-02-19T03:11:33.214Z,90.61
2023-02-19T03:14:29.424Z,92.09
2023-02-19T03:17:19.121Z,92.17
2023-02-19T03:19:50.891Z,92.65
2023-02-19T03:22:21.773Z,93.43
2023-02-19T03:25:15.391Z,92.79
2023-02-19T03:27:44.595Z,92.33
2023-02-19T03:30:22.312Z,92.70
2023-02-19T03:32:55.179Z,92.59
2023-02-19T03:35:25.664Z,93.00
2023-02-19T03:38:13.404Z,92.49
2023-02-19T03:41:04.289Z,92.16
2023-02-19T03:43:53.531Z,89.07
2023-02-19T03:46:34.802Z,89.06
2023-02-19T03:49:08.152Z,89.78
2023-02-19T03:51:43.186Z,89.10
2023-02-19T03:54:19.832Z,89.07
2023-02-19T03:56:53.343Z,88.36
2023-02-19T03:59:31.090Z,86.85
2023-02-19T04:02:08.433Z,86.46
2023-02-19T04:04:49.676Z,85.94
2023-02-19T04:07:16.834Z,86.10
2023-02-19T04:09:47.552Z,86.15
2023-02-19T04:12:15.906Z,85.76
2023-02-19T04:14:48.932Z,85.79
2023-02-19T04:17:23.508Z,85.48
2023-02-19T04:19:52.648Z,85.61
2023-02-19T04:22:21.653Z,86.10
2023-02-19T04:24:50.440Z,86.40
2023-02-19T04:27:17.281Z,86.92
2023-02-19T04:29:43.970Z,87.82
2023-02-19T04:32:11.893Z,87.88
2023-02-19T04:34:38.221Z,88.36
2023-02-19T04:37:04.580Z,88.78
2023-02-19T04:39:30.966Z,88.03
2023-02-19T04:41:57.293Z,88.77
2023-02-19T04:44:23.628Z,88.11
2023-02-19T04:46:49.948Z,87.74
2023-02-19T04:49:16.217Z,87.40
2023-02-19T04:51:42.598Z,87.63
2023-02-19T04:54:08.957Z,88.04
2023-02-19T04:56:35.310Z,88.18
2023-02-19T04:59:02.667Z,88.65
2023-02-19T05:01:29.221Z,88.42
2023-02-19T05:03:55.489Z,88.05
2023-02-19T05:06:21.783Z,88.23
2023-02-19T05:08:48.664Z,88.35
2023-02-19T05:11:14.942Z,88.02
2023-02-19T05:13:41.477Z,88.01
2023-02-19T05:16:13.725Z,87.92
2023-02-19T05:18:40.600Z,87.27
2023-02-19T05:21:06.921Z,87.58
2023-02-19T05:23:33.234Z,87.34
2023-02-19T05:25:59.505Z,86.42
2023-02-19T05:28:28.892Z,86.01
2023-02-19T05:30:56.964Z,85.75
2023-02-19T05:33:25.807Z,85.57
2023-02-19T05:35:55.027Z,84.99
2023-02-19T05:38:22.514Z,85.14
2023-02-19T05:40:49.141Z,84.29
2023-02-19T05:43:15.836Z,83.64
2023-02-19T05:45:42.472Z,83.73
2023-02-19T05:48:10.968Z,83.72
2023-02-19T05:50:39.813Z,83.24
2023-02-19T05:53:06.461Z,83.33
2023-02-19T05:55:36.108Z,82.76
2023-02-19T05:58:02.526Z,82.18
2023-02-19T06:00:29.019Z,82.05
2023-02-19T06:02:55.435Z,82.40
2023-02-19T06:05:21.829Z,82.30
2023-02-19T06:07:50.281Z,82.00
2023-02-19T06:10:16.993Z,82.02
2023-02-19T06:12:43.468Z,81.98
2023-02-19T06:15:09.881Z,81.83
2023-02-19T06:17:36.234Z,81.34
2023-02-19T06:20:02.994Z,81.55
2023-02-19T06:22:29.301Z,81.81
2023-02-19T06:24:55.724Z,81.41
2023-02-19T06:27:22.089Z,80.98
2023-02-19T06:29:48.596Z,80.88
2023-02-19T06:32:15.004Z,80.78
2023-02-19T06:34:41.327Z,80.92
2023-02-19T06:37:07.710Z,80.41
2023-02-19T06:39:34.031Z,80.47
2023-02-19T06:42:00.343Z,80.24
2023-02-19T06:44:26.686Z,80.41
2023-02-19T06:46:55.663Z,80.66
2023-02-19T06:49:22.669Z,80.63
2023-02-19T06:51:48.995Z,80.49
2023-02-19T06:54:15.304Z,81.06
2023-02-19T06:56:41.897Z,80.88
2023-02-19T06:59:11.583Z,80.72
2023-02-19T07:01:39.185Z,80.78
2023-02-19T07:04:07.271Z,81.21
2023-02-19T07:06:34.929Z,81.08
2023-02-19T07:09:02.193Z,81.34
2023-02-19T07:11:34.076Z,80.72
2023-02-19T07:14:02.516Z,80.73
2023-02-19T07:16:29.597Z,80.57
2023-02-19T07:18:57.844Z,80.88
2023-02-19T07:21:24.282Z,80.54
2023-02-19T07:23:50.608Z,80.20
2023-02-19T07:26:18.916Z,80.10
2023-02-19T07:28:47.433Z,80.41
2023-02-19T07:31:18.513Z,80.53
2023-02-19T07:33:45.751Z,80.26
2023-02-19T07:36:13.082Z,80.51
2023-02-19T07:38:39.881Z,79.39
2023-02-19T07:41:06.914Z,79.24
2023-02-19T07:43:35.761Z,78.90
2023-02-19T07:46:06.385Z,79.12
2023-02-19T07:48:34.785Z,78.81
2023-02-19T07:51:02.259Z,78.23
2023-02-19T07:53:29.026Z,78.28
2023-02-19T07:56:01.521Z,78.62
2023-02-19T07:58:28.980Z,78.90
2023-02-19T08:00:55.343Z,79.00
2023-02-19T08:03:22.096Z,79.33
2023-02-19T08:05:49.884Z,79.87
2023-02-19T08:08:16.234Z,80.62
2023-02-19T08:11:01.367Z,80.64
2023-02-19T08:13:30.680Z,82.53
2023-02-19T08:16:16.328Z,83.83
2023-02-19T08:18:45.969Z,84.55
2023-02-19T08:21:12.676Z,85.38
2023-02-19T08:23:39.875Z,84.43
2023-02-19T08:26:06.845Z,84.52
2023-02-19T08:28:33.235Z,84.72
2023-02-19T08:31:05.033Z,84.09
2023-02-19T08:33:31.429Z,80.87
2023-02-19T08:36:04.585Z,81.23
2023-02-19T08:38:32.188Z,80.36
2023-02-19T08:40:58.965Z,78.94
2023-02-19T08:43:25.312Z,79.70
2023-02-19T08:45:53.452Z,79.38
2023-02-19T08:48:19.797Z,77.28
2023-02-19T08:50:53.864Z,77.09
2023-02-19T08:53:20.197Z,77.93
2023-02-19T08:55:47.013Z,77.47
2023-02-19T08:58:13.308Z,77.33
2023-02-19T09:00:39.595Z,77.11
2023-02-19T09:03:06.075Z,76.96
2023-02-19T09:05:32.421Z,76.57
2023-02-19T09:07:58.750Z,76.81
2023-02-19T09:10:25.077Z,75.94
2023-02-19T09:12:51.395Z,76.25
2023-02-19T09:15:18.068Z,75.93
2023-02-19T09:17:44.435Z,76.18
2023-02-19T09:20:11.377Z,75.47
2023-02-19T09:22:37.691Z,76.27
2023-02-19T09:25:04.211Z,75.58
2023-02-19T09:27:32.170Z,75.28
2023-02-19T09:29:58.603Z,74.79
2023-02-19T09:32:25.006Z,74.54
2023-02-19T09:34:51.345Z,74.42
2023-02-19T09:37:17.614Z,73.66
2023-02-19T09:39:44.078Z,73.19
2023-02-19T09:42:20.930Z,73.31
2023-02-19T09:44:50.382Z,72.99
2023-02-19T09:47:25.460Z,73.10
2023-02-19T09:50:01.052Z,73.39
2023-02-19T09:52:36.633Z,73.49
2023-02-19T09:55:14.599Z,73.23
2023-02-19T09:57:42.665Z,73.03
2023-02-19T10:00:12.298Z,73.36
2023-02-19T10:02:39.126Z,73.07
2023-02-19T10:05:14.067Z,72.71
2023-02-19T10:07:45.277Z,71.96
2023-02-19T10:10:14.627Z,73.78
2023-02-19T10:12:46.633Z,75.46
2023-02-19T10:15:31.984Z,76.77
2023-02-19T10:17:58.553Z,76.67
2023-02-19T10:20:27.822Z,76.60
2023-02-19T10:23:02.839Z,75.42
2023-02-19T10:25:30.943Z,75.03
2023-02-19T10:27:59.826Z,75.55
2023-02-19T10:30:35.375Z,74.98
2023-02-19T10:33:12.547Z,74.28
2023-02-19T10:35:58.126Z,73.25
2023-02-19T10:38:32.707Z,72.25
2023-02-19T10:41:04.072Z,69.01
2023-02-19T10:43:34.821Z,68.82
2023-02-19T10:46:05.223Z,68.04
2023-02-19T10:48:37.461Z,67.80
2023-02-19T10:51:11.283Z,67.03
2023-02-19T10:53:44.300Z,67.42
2023-02-19T10:56:24.827Z,66.94
2023-02-19T10:58:51.610Z,68.33
2023-02-19T11:01:23.380Z,66.94
2023-02-19T11:04:12.930Z,66.30
2023-02-19T11:06:39.941Z,66.83
2023-02-19T11:09:06.559Z,66.56
2023-02-19T11:11:39.422Z,65.31
2023-02-19T11:14:16.556Z,65.04
2023-02-19T11:16:56.247Z,65.13
2023-02-19T11:19:54.084Z,64.38
2023-02-19T11:22:35.248Z,62.56
2023-02-19T11:25:25.533Z,62.06
2023-02-19T11:28:07.168Z,62.13
2023-02-19T11:30:47.665Z,63.09
2023-02-19T11:33:17.007Z,63.29
2023-02-19T11:35:44.527Z,64.20
2023-02-19T11:38:14.005Z,65.28
2023-02-19T11:40:47.998Z,65.78
2023-02-19T11:43:24.589Z,65.46
2023-02-19T11:45:54.680Z,65.92
2023-02-19T11:48:55.046Z,64.73
2023-02-19T11:51:34.151Z,66.03
2023-02-19T11:54:14.980Z,64.66
2023-02-19T11:56:42.994Z,63.98
2023-02-19T11:59:18.191Z,64.56
2023-02-19T12:02:22.019Z,64.54
2023-02-19T12:05:18.225Z,65.25
2023-02-19T12:08:17.276Z,64.89
2023-02-19T12:11:02.420Z,64.05
2023-02-19T12:13:34.704Z,63.53
2023-02-19T12:16:19.496Z,62.29
2023-02-19T12:19:16.924Z,61.16
2023-02-19T12:22:03.461Z,59.08
2023-02-19T12:24:53.576Z,58.64
2023-02-19T12:27:46.615Z,57.81
2023-02-19T12:30:33.194Z,59.14
2023-02-19T12:33:23.683Z,59.88
2023-02-19T12:36:06.956Z,59.88
2023-02-19T12:38:41.465Z,61.66
2023-02-19T12:41:32.470Z,64.43
2023-02-19T12:44:11.260Z,63.08
2023-02-19T12:46:45.057Z,62.48
2023-02-19T12:49:22.512Z,61.68
2023-02-19T12:51:54.984Z,61.13
2023-02-19T12:54:32.771Z,60.77
2023-02-19T12:57:20.676Z,60.16
2023-02-19T12:59:55.141Z,59.91
2023-02-19T13:02:53.425Z,58.97
2023-02-19T13:05:35.134Z,58.94
2023-02-19T13:08:18.687Z,58.54
2023-02-19T13:10:51.922Z,58.21
2023-02-19T13:13:34.387Z,57.21
2023-02-19T13:16:09.463Z,55.59
2023-02-19T13:18:46.263Z,56.05
2023-02-19T13:21:35.376Z,56.38
2023-02-19T13:24:07.500Z,56.75
2023-02-19T13:26:54.881Z,58.50
2023-02-19T13:29:51.344Z,59.99
2023-02-19T13:32:44.542Z,61.43
2023-02-19T13:35:26.008Z,62.12
2023-02-19T13:37:54.549Z,60.80
2023-02-19T13:40:33.234Z,59.95
2023-02-19T13:43:02.399Z,58.10
2023-02-19T13:45:34.675Z,59.23
2023-02-19T13:48:14.086Z,59.79
2023-02-19T13:50:40.642Z,60.57
2023-02-19T13:53:55.841Z,63.18
2023-02-19T13:56:31.422Z,65.91
2023-02-19T13:59:12.291Z,65.78
2023-02-19T14:01:54.024Z,65.62
2023-02-19T14:04:25.096Z,66.19
2023-02-19T14:07:03.865Z,65.49
2023-02-19T14:09:36.563Z,66.45
2023-02-19T14:12:20.272Z,66.34
2023-02-19T14:14:56.553Z,65.62
2023-02-19T14:17:27.313Z,67.19
2023-02-19T14:20:16.924Z,69.62
2023-02-19T14:22:46.079Z,69.06
2023-02-19T14:25:38.800Z,71.01
2023-02-19T14:28:11.618Z,74.14
2023-02-19T14:30:51.898Z,74.95
2023-02-19T14:33:22.880Z,77.46
2023-02-19T14:35:55.275Z,78.91
2023-02-19T14:38:31.830Z,78.11
2023-02-19T14:40:58.619Z,78.70
2023-02-19T14:43:26.798Z,79.32
2023-02-19T14:46:01.368Z,75.55
2023-02-19T14:48:33.459Z,75.78
2023-02-19T14:51:28.786Z,75.90
2023-02-19T14:53:57.036Z,75.87
2023-02-19T14:56:27.745Z,76.58
2023-02-19T14:59:21.925Z,76.47
2023-02-19T15:01:59.417Z,76.81
2023-02-19T15:04:29.672Z,76.03
2023-02-19T15:06:57.476Z,76.46
2023-02-19T15:09:32.118Z,76.07
2023-02-19T15:11:59.417Z,74.69
2023-02-19T15:14:28.559Z,74.78
2023-02-19T15:17:01.025Z,75.52
2023-02-19T15:19:32.994Z,75.24
2023-02-19T15:21:59.493Z,74.66
2023-02-19T15:24:26.005Z,74.34
2023-02-19T15:26:54.524Z,74.60
2023-02-19T15:29:24.114Z,74.45
2023-02-19T15:31:52.301Z,74.56
2023-02-19T15:34:29.942Z,75.28
2023-02-19T15:37:03.194Z,75.49
2023-02-19T15:39:35.772Z,75.91
2023-02-19T15:42:04.642Z,76.42
2023-02-19T15:44:34.675Z,76.86
2023-02-19T15:47:11.413Z,76.49
2023-02-19T15:49:46.226Z,77.08
2023-02-19T15:52:21.111Z,77.66
2023-02-19T15:54:55.017Z,78.40
2023-02-19T15:57:28.031Z,79.99
2023-02-19T16:00:07.150Z,82.00
2023-02-19T16:02:34.409Z,82.34
2023-02-19T16:05:02.207Z,83.36
2023-02-19T16:07:34.711Z,84.66
2023-02-19T16:10:18.274Z,85.30
2023-02-19T16:12:54.032Z,86.15
2023-02-19T16:15:20.725Z,86.84
2023-02-19T16:17:47.502Z,87.62
2023-02-19T16:20:39.613Z,88.58
2023-02-19T16:23:13.748Z,87.22
2023-02-19T16:25:45.841Z,87.02
2023-02-19T16:28:24.244Z,86.62
2023-02-19T16:30:59.178Z,86.58
2023-02-19T16:33:40.849Z,86.36
2023-02-19T16:36:26.211Z,86.58
2023-02-19T16:39:20.233Z,86.82
2023-02-19T16:41:46.875Z,86.37
2023-02-19T16:44:25.091Z,86.80
2023-02-19T16:46:57.739Z,88.04
2023-02-19T16:49:24.636Z,87.91
2023-02-19T16:51:51.248Z,88.64
2023-02-19T16:54:17.537Z,89.03
2023-02-19T16:56:43.863Z,88.07
2023-02-19T16:59:10.156Z,86.72
2023-02-19T17:01:37.384Z,85.20
2023-02-19T17:04:11.429Z,85.75
2023-02-19T17:06:38.265Z,84.65
2023-02-19T17:09:08.564Z,86.58
2023-02-19T17:11:36.087Z,86.84
2023-02-19T17:14:02.602Z,85.47
2023-02-19T17:16:39.601Z,85.68
2023-02-19T17:19:13.005Z,84.91
2023-02-19T17:21:39.555Z,84.11
2023-02-19T17:24:06.160Z,82.58
2023-02-19T17:26:33.175Z,82.94
2023-02-19T17:29:01.723Z,82.43
2023-02-19T17:31:28.204Z,82.98
2023-02-19T17:33:55.026Z,82.46
2023-02-19T17:36:27.793Z,82.29
2023-02-19T17:38:54.412Z,82.13
2023-02-19T17:41:20.755Z,82.62
2023-02-19T17:43:47.499Z,81.82
2023-02-19T17:46:15.587Z,81.93
2023-02-19T17:48:41.978Z,81.45
2023-02-19T17:51:08.490Z,81.79
2023-02-19T17:53:34.800Z,82.14
2023-02-19T17:56:01.211Z,80.97
2023-02-19T17:58:27.551Z,81.25
2023-02-19T18:00:53.963Z,82.52
2023-02-19T18:03:20.324Z,80.91
2023-02-19T18:05:46.817Z,81.59
2023-02-19T18:08:13.253Z,82.17
2023-02-19T18:10:39.588Z,82.64
2023-02-19T18:13:06.084Z,82.67
2023-02-19T18:15:32.726Z,83.22
2023-02-19T18:17:59.177Z,83.28
2023-02-19T18:20:27.945Z,82.76
2023-02-19T18:22:55.736Z,82.18
2023-02-19T18:25:22.748Z,82.37
2023-02-19T18:27:49.672Z,82.46
2023-02-19T18:30:18.831Z,83.41
2023-02-19T18:32:49.527Z,83.47
2023-02-19T18:35:17.445Z,83.75
2023-02-19T18:37:43.849Z,83.67
2023-02-19T18:40:10.830Z,83.59
2023-02-19T18:42:37.187Z,84.12
2023-02-19T18:45:04.100Z,83.71
2023-02-19T18:47:30.374Z,83.04
2023-02-19T18:49:57.916Z,83.44
2023-02-19T18:52:26.110Z,82.80
2023-02-19T18:54:57.211Z,82.41
2023-02-19T18:57:25.259Z,82.84
2023-02-19T18:59:51.798Z,83.50
2023-02-19T19:02:18.979Z,83.59
2023-02-19T19:04:52.140Z,82.97
2023-02-19T19:07:19.588Z,83.03
2023-02-19T19:09:45.982Z,82.11
2023-02-19T19:12:12.388Z,82.41
2023-02-19T19:14:38.655Z,80.81
2023-02-19T19:17:05.395Z,81.15
2023-02-19T19:19:31.794Z,81.62
2023-02-19T19:21:58.071Z,81.79
2023-02-19T19:24:24.946Z,81.47
2023-02-19T19:26:51.934Z,81.65
2023-02-19T19:29:20.370Z,81.67
2023-02-19T19:31:46.922Z,82.28
2023-02-19T19:34:13.965Z,82.69
2023-02-19T19:36:40.369Z,82.76
2023-02-19T19:39:06.929Z,83.29
2023-02-19T19:41:33.311Z,83.17
2023-02-19T19:44:05.424Z,82.64
2023-02-19T19:46:32.513Z,81.87
2023-02-19T19:48:58.889Z,81.93
2023-02-19T19:51:31.878Z,82.43
2023-02-19T19:53:58.348Z,82.55
2023-02-19T19:56:24.937Z,81.71
2023-02-19T19:58:51.278Z,82.38
2023-02-19T20:01:20.956Z,82.58
2023-02-19T20:03:47.882Z,81.55
2023-02-19T20:06:14.560Z,81.71
2023-02-19T20:08:40.951Z,81.99
2023-02-19T20:11:07.219Z,82.25
2023-02-19T20:13:34.401Z,82.93
2023-02-19T20:16:00.789Z,83.02
2023-02-19T20:18:27.403Z,82.84
2023-02-19T20:20:53.992Z,83.14
2023-02-19T20:23:20.335Z,83.09
2023-02-19T20:25:46.611Z,83.38
2023-02-19T20:28:12.963Z,83.95
2023-02-19T20:30:39.320Z,84.25
2023-02-19T20:33:05.638Z,84.53
2023-02-19T20:35:32.403Z,84.61
2023-02-19T20:37:58.772Z,84.48
2023-02-19T20:40:27.556Z,84.66
2023-02-19T20:42:54.190Z,84.64
2023-02-19T20:45:21.270Z,84.94
2023-02-19T20:47:47.861Z,84.77
2023-02-19T20:50:17.527Z,84.69
2023-02-19T20:52:44.746Z,84.66
2023-02-19T20:55:11.160Z,85.21
2023-02-19T20:57:37.741Z,85.23
2023-02-19T21:00:05.796Z,85.69
2023-02-19T21:02:32.136Z,85.55
2023-02-19T21:04:58.844Z,85.49
2023-02-19T21:07:25.819Z,85.76
2023-02-19T21:09:52.541Z,85.19
2023-02-19T21:12:20.228Z,84.07
2023-02-19T21:14:46.973Z,84.54
2023-02-19T21:17:13.406Z,84.49
2023-02-19T21:19:40.036Z,84.09
2023-02-19T21:22:06.402Z,84.18
2023-02-19T21:24:32.740Z,83.29
2023-02-19T21:26:59.231Z,84.32
2023-02-19T21:29:27.956Z,84.44
2023-02-19T21:31:56.707Z,84.35
2023-02-19T21:34:25.850Z,84.79
2023-02-19T21:36:52.932Z,84.31
2023-02-19T21:39:21.387Z,84.56
2023-02-19T21:41:48.262Z,84.64
2023-02-19T21:44:15.242Z,84.62
2023-02-19T21:46:41.585Z,84.25
2023-02-19T21:49:08.333Z,83.92
2023-02-19T21:51:37.667Z,83.75
2023-02-19T21:54:05.961Z,84.16
2023-02-19T21:56:36.095Z,84.80
2023-02-19T21:59:02.995Z,85.16
2023-02-19T22:01:32.535Z,85.02
2023-02-19T22:03:59.177Z,84.72
2023-02-19T22:06:29.109Z,85.10
2023-02-19T22:08:55.768Z,85.12
2023-02-19T22:11:22.110Z,84.89
2023-02-19T22:13:48.360Z,83.98
2023-02-19T22:16:15.203Z,84.26
2023-02-19T22:18:48.886Z,83.04
2023-02-19T22:21:16.037Z,83.03
2023-02-19T22:23:47.160Z,83.21
2023-02-19T22:26:18.729Z,83.70
2023-02-19T22:28:45.873Z,83.88
2023-02-19T22:31:12.182Z,83.60
2023-02-19T22:33:40.950Z,83.23
2023-02-19T22:36:23.362Z,83.43
2023-02-19T22:38:50.091Z,82.90
2023-02-19T22:41:17.662Z,83.08
2023-02-19T22:43:44.915Z,83.51
2023-02-19T22:46:17.449Z,83.21
2023-02-19T22:48:43.840Z,83.72
2023-02-19T22:51:13.015Z,84.16
2023-02-19T22:53:44.729Z,84.32
2023-02-19T22:56:12.197Z,84.13
2023-02-19T22:58:39.466Z,83.99
2023-02-19T23:01:06.107Z,82.96
2023-02-19T23:03:32.439Z,83.14
2023-02-19T23:05:58.738Z,83.20
2023-02-19T23:08:25.082Z,83.72
2023-02-19T23:10:51.416Z,83.86
2023-02-19T23:13:17.705Z,83.95
2023-02-19T23:15:46.504Z,83.38
2023-02-19T23:18:12.788Z,83.47
2023-02-19T23:20:39.143Z,83.67
2023-02-19T23:23:05.402Z,83.25
2023-02-19T23:25:31.663Z,83.40
2023-02-19T23:27:58.444Z,84.56
2023-02-19T23:30:25.923Z,84.63
2023-02-19T23:32:52.612Z,84.90
2023-02-19T23:35:18.911Z,85.37
2023-02-19T23:37:45.234Z,85.73
2023-02-19T23:40:12.501Z,86.22
2023-02-19T23:42:38.751Z,87.27
2023-02-19T23:45:05.353Z,88.39
2023-02-19T23:47:31.640Z,89.05
2023-02-19T23:49:57.964Z,89.33
2023-02-19T23:52:24.296Z,89.52
2023-02-19T23:54:50.549Z,89.88
2023-02-19T23:57:16.874Z,90.69
2023-02-19T23:59:43.266Z,90.15
